Time;durP1;ratioP1;P1;durP2;ratioP2;P2;SDS_P1;SDS_P2;PMS_P1;PMS_P2;Temp;Humidity;BMP_temperature;BMP_pressure;BME280_temperature;BME280_humidity;BME280_pressure;Samples;Min_cycle;Max_cycle;Signal;HPM_P1;HPM_P2
2023/11/22 06:01:48;;;;;;;7.73;4.60;;;;;;;;;;6100738;23;20457;-73
2023/11/22 06:04:14;;;;;;;10.80;5.00;;;;;;;;;;4941027;29;20437;-74
2023/11/22 06:06:40;;;;;;;9.70;4.80;;;;;;;;;;4935746;29;20405;-74
2023/11/22 06:09:07;;;;;;;10.93;4.63;;;;;;;;;;4935771;29;20444;-73
2023/11/22 06:11:33;;;;;;;10.23;5.23;;;;;;;;;;4935624;29;20964;-74
2023/11/22 06:13:59;;;;;;;9.00;4.90;;;;;;;;;;4935607;29;20445;-73
2023/11/22 06:18:54;;;;;;;5.83;4.27;;;;;;;;;;4930341;29;20492;-71
2023/11/22 06:21:20;;;;;;;7.10;4.90;;;;;;;;;;4919534;29;20912;-71
2023/11/22 06:23:46;;;;;;;6.23;3.90;;;;;;;;;;4919404;29;20521;-71
2023/11/22 06:26:12;;;;;;;8.27;5.03;;;;;;;;;;4920711;29;20486;-71
2023/11/22 06:28:38;;;;;;;9.50;5.00;;;;;;;;;;4919311;29;20908;-72
2023/11/22 06:31:04;;;;;;;16.03;4.10;;;;;;;;;;4919114;29;20417;-71
2023/11/22 06:33:30;;;;;;;8.07;4.50;;;;;;;;;;4918938;29;20431;-71
2023/11/22 06:35:56;;;;;;;8.27;4.40;;;;;;;;;;4918640;29;20449;-72
2023/11/22 06:38:22;;;;;;;10.50;4.83;;;;;;;;;;4918728;29;20871;-72
2023/11/22 06:40:48;;;;;;;8.33;4.30;;;;;;;;;;4918533;29;20906;-72
2023/11/22 06:43:14;;;;;;;9.80;4.97;;;;;;;;;;4918559;29;20434;-72
2023/11/22 06:45:41;;;;;;;6.87;4.20;;;;;;;;;;4918493;29;20422;-72
2023/11/22 06:48:07;;;;;;;6.23;4.07;;;;;;;;;;4923515;29;20932;-72
2023/11/22 06:50:33;;;;;;;8.10;4.60;;;;;;;;;;4918687;29;20478;-72
2023/11/22 06:52:59;;;;;;;6.93;4.37;;;;;;;;;;4918916;29;20521;-72
2023/11/22 06:55:27;;;;;;;10.73;5.00;;;;;;;;;;4935153;29;20417;-73
2023/11/22 06:57:53;;;;;;;12.43;5.07;;;;;;;;;;4937305;29;20505;-72
2023/11/22 07:00:20;;;;;;;7.83;3.97;;;;;;;;;;4937605;29;20410;-73
2023/11/22 07:02:46;;;;;;;8.37;4.37;;;;;;;;;;4937228;29;20449;-72
2023/11/22 07:05:12;;;;;;;13.47;4.50;;;;;;;;;;4937343;29;20504;-73
2023/11/22 07:07:38;;;;;;;5.23;3.80;;;;;;;;;;4934010;29;20561;-72
2023/11/22 07:10:05;;;;;;;7.13;4.27;;;;;;;;;;4936602;29;20488;-71
2023/11/22 07:12:31;;;;;;;6.37;3.90;;;;;;;;;;4932177;29;20472;-71
2023/11/22 07:14:59;;;;;;;5.07;3.50;;;;;;;;;;4929305;29;20440;-71
2023/11/22 07:17:27;;;;;;;7.20;4.30;;;;;;;;;;4918214;29;20462;-71
2023/11/22 07:19:54;;;;;;;7.27;3.87;;;;;;;;;;4924295;29;20854;-72
2023/11/22 07:22:22;;;;;;;5.53;4.03;;;;;;;;;;4936997;29;20474;-72
2023/11/22 07:24:51;;;;;;;7.80;4.40;;;;;;;;;;4937036;29;20968;-72
2023/11/22 07:27:17;;;;;;;5.77;3.63;;;;;;;;;;4936764;29;20436;-72
2023/11/22 07:29:44;;;;;;;8.07;3.90;;;;;;;;;;4936278;29;20422;-73
2023/11/22 07:32:10;;;;;;;10.33;3.60;;;;;;;;;;4929993;29;20582;-73
2023/11/22 07:34:36;;;;;;;6.10;3.53;;;;;;;;;;4917986;29;20494;-72
2023/11/22 07:37:02;;;;;;;7.97;4.17;;;;;;;;;;4917754;29;20490;-71
2023/11/22 07:39:28;;;;;;;9.03;3.90;;;;;;;;;;4917880;29;20501;-73
2023/11/22 07:41:55;;;;;;;7.53;3.50;;;;;;;;;;4918650;29;20454;-72
2023/11/22 07:44:22;;;;;;;7.00;3.90;;;;;;;;;;4932737;29;20480;-71
2023/11/22 07:46:48;;;;;;;5.93;3.20;;;;;;;;;;4936173;29;20433;-70
2023/11/22 07:49:14;;;;;;;6.13;3.77;;;;;;;;;;4936192;29;20417;-70
2023/11/22 07:51:41;;;;;;;6.77;3.87;;;;;;;;;;4936140;29;20461;-70
2023/11/22 07:54:08;;;;;;;8.10;4.00;;;;;;;;;;4936012;29;20523;-70
2023/11/22 07:56:34;;;;;;;5.17;3.67;;;;;;;;;;4935957;29;20804;-71
2023/11/22 07:59:00;;;;;;;4.97;3.20;;;;;;;;;;4936163;29;20473;-73
2023/11/22 08:01:30;;;;;;;7.00;4.10;;;;;;;;;;4936331;29;20445;-70
2023/11/22 08:03:56;;;;;;;12.57;4.77;;;;;;;;;;4936187;29;20757;-70
2023/11/22 08:06:22;;;;;;;13.07;4.90;;;;;;;;;;4935845;29;20504;-70
2023/11/22 08:08:48;;;;;;;11.83;3.97;;;;;;;;;;4936568;29;20520;-71
2023/11/22 08:11:20;;;;;;;6.73;3.77;;;;;;;;;;4936166;29;20509;-70
2023/11/22 08:13:47;;;;;;;7.43;4.17;;;;;;;;;;4936341;29;20481;-70
2023/11/22 08:16:13;;;;;;;9.23;3.80;;;;;;;;;;4935883;29;20409;-70
2023/11/22 08:18:42;;;;;;;7.50;4.43;;;;;;;;;;4936069;29;20449;-70
2023/11/22 08:21:08;;;;;;;9.53;4.53;;;;;;;;;;4936057;29;20913;-72
2023/11/22 08:23:34;;;;;;;8.13;4.10;;;;;;;;;;4935744;29;20420;-72
2023/11/22 08:26:00;;;;;;;9.50;4.60;;;;;;;;;;4935435;29;20773;-71
2023/11/22 08:28:26;;;;;;;9.87;4.57;;;;;;;;;;4935726;29;20439;-71
2023/11/22 08:30:53;;;;;;;12.07;4.80;;;;;;;;;;4935797;29;20414;-71
2023/11/22 08:33:19;;;;;;;8.00;3.80;;;;;;;;;;4935295;29;20469;-71
2023/11/22 08:35:50;;;;;;;6.40;4.43;;;;;;;;;;4935381;29;20414;-71
2023/11/22 08:38:16;;;;;;;6.57;4.40;;;;;;;;;;4935652;29;20437;-71
2023/11/22 08:40:42;;;;;;;14.03;4.00;;;;;;;;;;4935691;29;20410;-71
2023/11/22 08:43:08;;;;;;;6.10;4.47;;;;;;;;;;4935621;29;20495;-71
2023/11/22 08:45:35;;;;;;;10.30;4.60;;;;;;;;;;4935569;29;20508;-71
2023/11/22 08:48:01;;;;;;;6.87;3.60;;;;;;;;;;4935155;29;20444;-72
2023/11/22 08:50:27;;;;;;;10.40;4.50;;;;;;;;;;4935523;29;20428;-71
2023/11/22 08:52:53;;;;;;;8.33;3.90;;;;;;;;;;4936042;29;20539;-71
2023/11/22 08:55:24;;;;;;;9.00;4.13;;;;;;;;;;4935214;29;20417;-71
2023/11/22 08:57:52;;;;;;;8.27;4.23;;;;;;;;;;4935219;29;20813;-71
2023/11/22 09:00:22;;;;;;;11.37;4.33;;;;;;;;;;4935066;29;20416;-71
2023/11/22 09:02:49;;;;;;;7.63;4.07;;;;;;;;;;4935259;29;20997;-71
2023/11/22 09:05:16;;;;;;;11.40;5.13;;;;;;;;;;4935014;29;21037;-71
2023/11/22 09:07:44;;;;;;;6.63;3.70;;;;;;;;;;4935022;29;20439;-71
2023/11/22 09:10:11;;;;;;;7.33;4.00;;;;;;;;;;4935195;29;20432;-72
2023/11/22 09:12:40;;;;;;;9.67;4.03;;;;;;;;;;4933369;29;20562;-72
2023/11/22 09:15:10;;;;;;;7.40;4.37;;;;;;;;;;4934859;29;20410;-72
2023/11/22 09:17:48;;;;;;;7.43;5.03;;;;;;;;;;4934576;29;20450;-71
2023/11/22 09:20:15;;;;;;;9.63;4.80;;;;;;;;;;4934648;29;20410;-71
2023/11/22 09:22:47;;;;;;;14.10;4.87;;;;;;;;;;4934610;29;20421;-72
2023/11/22 09:25:13;;;;;;;10.27;4.33;;;;;;;;;;4934767;29;20440;-72
2023/11/22 09:27:40;;;;;;;8.47;4.80;;;;;;;;;;4934330;29;20937;-72
2023/11/22 09:30:10;;;;;;;9.57;4.70;;;;;;;;;;4934787;29;20429;-72
2023/11/22 09:32:38;;;;;;;11.00;4.97;;;;;;;;;;4934537;29;20700;-72
2023/11/22 09:35:04;;;;;;;7.57;4.00;;;;;;;;;;4934458;29;20918;-72
2023/11/22 09:37:32;;;;;;;9.00;5.00;;;;;;;;;;4934153;29;20471;-71
2023/11/22 09:39:58;;;;;;;11.10;5.60;;;;;;;;;;4934592;29;20421;-72
2023/11/22 09:42:24;;;;;;;9.90;4.80;;;;;;;;;;4934459;29;20413;-72
2023/11/22 09:44:50;;;;;;;15.53;5.10;;;;;;;;;;4933214;29;20461;-72
2023/11/22 09:47:19;;;;;;;6.20;4.27;;;;;;;;;;4934129;29;20504;-72
2023/11/22 09:49:46;;;;;;;9.90;5.27;;;;;;;;;;4934777;29;20417;-71
2023/11/22 09:52:14;;;;;;;11.50;5.43;;;;;;;;;;4934115;29;20457;-72
2023/11/22 09:54:40;;;;;;;10.37;5.60;;;;;;;;;;4934947;29;20445;-72
2023/11/22 09:57:09;;;;;;;10.57;4.93;;;;;;;;;;4933944;29;20456;-72
2023/11/22 09:59:36;;;;;;;12.53;5.17;;;;;;;;;;4934924;29;20410;-72
2023/11/22 10:02:03;;;;;;;11.77;5.57;;;;;;;;;;4933347;29;20449;-72
2023/11/22 10:04:31;;;;;;;8.50;4.80;;;;;;;;;;4934498;29;20421;-72
2023/11/22 10:06:58;;;;;;;17.83;6.30;;;;;;;;;;4934166;29;20438;-72
2023/11/22 10:09:25;;;;;;;8.50;5.30;;;;;;;;;;4934298;29;20418;-72
2023/11/22 10:11:50;;;;;;;10.37;5.60;;;;;;;;;;4934539;29;20556;-72
2023/11/22 10:14:24;;;;;;;12.73;6.00;;;;;;;;;;4934596;29;20508;-71
2023/11/22 10:17:05;;;;;;;12.70;5.63;;;;;;;;;;4934192;29;20449;-71
2023/11/22 10:19:31;;;;;;;8.47;4.07;;;;;;;;;;4934386;29;20444;-72
2023/11/22 10:22:03;;;;;;;10.97;5.80;;;;;;;;;;4934341;29;20414;-71
2023/11/22 10:24:33;;;;;;;9.97;5.50;;;;;;;;;;4934854;29;20876;-71
2023/11/22 10:26:59;;;;;;;11.10;5.63;;;;;;;;;;4934169;29;20422;-72
2023/11/22 10:29:28;;;;;;;19.50;5.60;;;;;;;;;;4934229;29;20418;-72
2023/11/22 10:31:54;;;;;;;8.57;5.17;;;;;;;;;;4934181;29;20464;-72
2023/11/22 10:34:23;;;;;;;10.03;5.70;;;;;;;;;;4934067;29;20432;-72
2023/11/22 10:36:50;;;;;;;9.07;5.40;;;;;;;;;;4933947;29;20946;-72
2023/11/22 10:39:21;;;;;;;12.37;5.63;;;;;;;;;;4934371;29;20422;-72
2023/11/22 10:41:50;;;;;;;7.90;5.03;;;;;;;;;;4934169;29;20421;-72
2023/11/22 10:44:16;;;;;;;12.63;6.00;;;;;;;;;;4933013;29;20580;-70
2023/11/22 10:46:42;;;;;;;13.53;5.53;;;;;;;;;;4933813;29;20425;-70
2023/11/22 10:49:08;;;;;;;9.97;5.90;;;;;;;;;;4932836;29;20417;-71
2023/11/22 10:51:34;;;;;;;10.73;6.13;;;;;;;;;;4934092;29;20464;-70
2023/11/22 10:54:03;;;;;;;10.57;5.50;;;;;;;;;;4933918;29;20410;-70
2023/11/22 10:56:31;;;;;;;14.43;6.20;;;;;;;;;;4933207;29;20424;-70
2023/11/22 10:58:57;;;;;;;11.33;5.87;;;;;;;;;;4933730;29;20422;-71
2023/11/22 11:01:30;;;;;;;12.00;5.90;;;;;;;;;;4933721;29;20421;-72
2023/11/22 11:03:58;;;;;;;9.63;5.93;;;;;;;;;;4948289;29;20429;-71
2023/11/22 11:06:28;;;;;;;13.10;5.90;;;;;;;;;;4941619;29;20973;-71
2023/11/22 11:08:59;;;;;;;9.80;5.27;;;;;;;;;;4941797;29;20418;-71
2023/11/22 11:11:26;;;;;;;8.50;5.70;;;;;;;;;;4940244;29;20500;-70
2023/11/22 11:13:52;;;;;;;13.43;6.43;;;;;;;;;;4937834;29;20420;-71
2023/11/22 11:16:19;;;;;;;11.83;5.60;;;;;;;;;;4937163;29;20444;-72
2023/11/22 11:18:45;;;;;;;9.00;5.83;;;;;;;;;;4937437;29;20965;-70
2023/11/22 11:21:12;;;;;;;7.73;5.57;;;;;;;;;;4937475;29;20414;-70
2023/11/22 11:23:39;;;;;;;11.70;6.50;;;;;;;;;;4937677;29;20500;-71
2023/11/22 11:26:21;;;;;;;11.30;6.07;;;;;;;;;;4936068;29;20449;-70
2023/11/22 11:28:47;;;;;;;11.90;6.40;;;;;;;;;;4937375;29;20437;-70
2023/11/22 11:31:16;;;;;;;12.07;6.30;;;;;;;;;;4937189;29;20410;-71
2023/11/22 11:33:48;;;;;;;11.93;7.20;;;;;;;;;;4936912;29;20425;-71
2023/11/22 11:36:31;;;;;;;15.47;7.20;;;;;;;;;;4936698;29;20745;-71
2023/11/22 11:38:58;;;;;;;10.10;6.00;;;;;;;;;;4936816;29;20414;-71
2023/11/22 11:41:34;;;;;;;9.33;5.97;;;;;;;;;;4936626;29;20414;-71
2023/11/22 11:44:03;;;;;;;11.00;5.83;;;;;;;;;;4936675;29;20412;-71
2023/11/22 11:46:29;;;;;;;14.70;5.80;;;;;;;;;;4936412;29;20449;-72
2023/11/22 11:48:56;;;;;;;19.30;6.97;;;;;;;;;;4936295;29;20849;-71
2023/11/22 11:51:29;;;;;;;12.60;7.87;;;;;;;;;;4936379;29;20471;-71
2023/11/22 11:53:55;;;;;;;7.40;5.60;;;;;;;;;;4936346;29;20414;-71
2023/11/22 11:56:26;;;;;;;8.63;5.77;;;;;;;;;;4936326;29;21013;-71
2023/11/22 11:58:52;;;;;;;11.27;6.27;;;;;;;;;;4936373;29;20813;-71
2023/11/22 12:01:20;;;;;;;11.03;6.23;;;;;;;;;;4936484;29;20424;-71
2023/11/22 12:03:47;;;;;;;10.00;5.57;;;;;;;;;;4936139;29;20402;-71
2023/11/22 12:06:16;;;;;;;8.90;5.93;;;;;;;;;;4936091;29;20788;-71
2023/11/22 12:08:42;;;;;;;11.73;6.90;;;;;;;;;;4936111;29;20421;-71
2023/11/22 12:11:10;;;;;;;10.60;5.90;;;;;;;;;;4936150;29;20429;-71
2023/11/22 12:13:43;;;;;;;8.43;5.67;;;;;;;;;;4936075;29;20432;-71
2023/11/22 12:16:10;;;;;;;12.23;7.37;;;;;;;;;;4935514;29;20505;-71
2023/11/22 12:18:41;;;;;;;11.10;6.57;;;;;;;;;;4936038;29;20956;-71
2023/11/22 12:21:07;;;;;;;13.77;6.57;;;;;;;;;;4936027;29;20418;-71
2023/11/22 12:23:33;;;;;;;10.23;4.80;;;;;;;;;;4936172;29;20421;-71
2023/11/22 12:26:00;;;;;;;13.33;6.53;;;;;;;;;;4935187;29;20800;-72
2023/11/22 12:28:29;;;;;;;13.03;6.37;;;;;;;;;;4935931;29;20953;-71
2023/11/22 12:30:55;;;;;;;13.37;6.73;;;;;;;;;;4935655;29;20501;-71
2023/11/22 12:33:21;;;;;;;10.77;6.10;;;;;;;;;;4935802;29;20946;-71
2023/11/22 12:35:49;;;;;;;10.97;6.43;;;;;;;;;;4936328;29;20418;-71
2023/11/22 12:38:16;;;;;;;11.30;6.30;;;;;;;;;;4939648;29;20434;-71
2023/11/22 12:40:48;;;;;;;20.90;7.33;;;;;;;;;;4940275;29;20414;-72
2023/11/22 12:43:15;;;;;;;13.70;6.60;;;;;;;;;;4940935;29;20420;-71
2023/11/22 12:45:41;;;;;;;13.00;6.50;;;;;;;;;;4941433;29;20456;-71
2023/11/22 12:48:37;;;;;;;15.93;6.47;;;;;;;;;;4940718;29;20521;-71
2023/11/22 12:51:03;;;;;;;11.80;6.40;;;;;;;;;;4930367;29;20928;-71
2023/11/22 12:53:30;;;;;;;13.17;7.50;;;;;;;;;;4935589;29;20688;-71
2023/11/22 12:55:56;;;;;;;11.77;5.90;;;;;;;;;;4935096;29;20938;-71
2023/11/22 12:58:23;;;;;;;10.20;5.87;;;;;;;;;;4935341;29;20952;-71
2023/11/22 13:00:50;;;;;;;12.37;6.60;;;;;;;;;;4935467;29;20457;-71
2023/11/22 13:03:17;;;;;;;10.60;5.63;;;;;;;;;;4935209;29;20418;-71
2023/11/22 13:05:44;;;;;;;11.80;6.37;;;;;;;;;;4935007;29;20524;-71
2023/11/22 13:08:13;;;;;;;12.17;6.87;;;;;;;;;;4934972;29;20430;-71
2023/11/22 13:10:55;;;;;;;13.67;5.80;;;;;;;;;;4934811;29;20409;-71
2023/11/22 13:13:29;;;;;;;14.40;6.20;;;;;;;;;;4934873;29;20493;-71
2023/11/22 13:15:55;;;;;;;18.00;6.97;;;;;;;;;;4934540;29;20489;-71
2023/11/22 13:18:21;;;;;;;10.80;6.10;;;;;;;;;;4934555;29;20537;-71
2023/11/22 13:20:48;;;;;;;9.77;5.23;;;;;;;;;;4934925;29;20492;-71
2023/11/22 13:23:14;;;;;;;16.63;6.97;;;;;;;;;;4934926;29;20505;-72
2023/11/22 13:25:44;;;;;;;10.50;6.33;;;;;;;;;;4934573;29;20446;-72
2023/11/22 13:28:10;;;;;;;7.23;4.97;;;;;;;;;;4934133;29;20429;-72
2023/11/22 13:30:36;;;;;;;16.47;6.87;;;;;;;;;;4935035;29;20472;-72
2023/11/22 13:33:03;;;;;;;12.70;6.17;;;;;;;;;;4934739;29;20465;-72
2023/11/22 13:35:37;;;;;;;11.60;5.80;;;;;;;;;;4934714;29;20457;-72
2023/11/22 13:38:06;;;;;;;14.40;6.30;;;;;;;;;;4934757;29;20499;-72
2023/11/22 13:40:33;;;;;;;13.10;6.13;;;;;;;;;;4934818;29;20509;-72
2023/11/22 13:42:59;;;;;;;13.47;6.77;;;;;;;;;;4934897;29;20417;-72
2023/11/22 13:45:25;;;;;;;10.53;5.60;;;;;;;;;;4937503;29;20433;-72
2023/11/22 13:48:03;;;;;;;11.17;6.07;;;;;;;;;;4938359;29;20434;-72
2023/11/22 13:50:29;;;;;;;9.67;5.63;;;;;;;;;;4939324;29;20449;-72
2023/11/22 13:52:56;;;;;;;12.00;6.73;;;;;;;;;;4939336;29;20476;-71
2023/11/22 13:55:25;;;;;;;9.93;5.93;;;;;;;;;;4938785;29;20417;-70
2023/11/22 13:57:51;;;;;;;14.37;7.47;;;;;;;;;;4937051;29;20444;-70
2023/11/22 14:00:18;;;;;;;13.83;6.30;;;;;;;;;;4934487;29;20410;-70
2023/11/22 14:02:48;;;;;;;12.10;6.37;;;;;;;;;;4934475;29;20424;-70
2023/11/22 14:05:15;;;;;;;11.43;6.27;;;;;;;;;;4934678;29;20480;-71
2023/11/22 14:07:41;;;;;;;11.87;6.10;;;;;;;;;;4934492;29;20794;-71
2023/11/22 14:10:09;;;;;;;9.57;5.30;;;;;;;;;;4934223;29;20425;-71
2023/11/22 14:12:35;;;;;;;8.87;6.00;;;;;;;;;;4934500;29;20826;-71
2023/11/22 14:15:01;;;;;;;9.53;5.30;;;;;;;;;;4934179;29;20421;-74
2023/11/22 14:17:27;;;;;;;13.67;6.37;;;;;;;;;;4933854;29;20448;-71
2023/11/22 14:19:54;;;;;;;11.10;6.57;;;;;;;;;;4933962;29;20449;-71
2023/11/22 14:22:20;;;;;;;10.80;6.37;;;;;;;;;;4934317;29;20421;-71
2023/11/22 14:24:46;;;;;;;15.60;6.40;;;;;;;;;;4932004;29;20761;-72
2023/11/22 14:27:12;;;;;;;8.90;5.77;;;;;;;;;;4929575;29;20454;-70
2023/11/22 14:29:40;;;;;;;15.13;6.90;;;;;;;;;;4927225;29;20856;-71
2023/11/22 14:32:06;;;;;;;12.00;6.77;;;;;;;;;;4915155;29;20466;-70
2023/11/22 14:34:33;;;;;;;14.47;6.57;;;;;;;;;;4922171;29;20410;-71
2023/11/22 14:36:59;;;;;;;11.73;6.50;;;;;;;;;;4933969;29;20434;-70
2023/11/22 14:39:25;;;;;;;12.10;6.37;;;;;;;;;;4948613;29;20772;-71
2023/11/22 14:41:51;;;;;;;8.97;5.10;;;;;;;;;;4920350;29;20765;-71
2023/11/22 14:44:17;;;;;;;8.50;5.63;;;;;;;;;;4923847;29;20509;-70
2023/11/22 14:46:44;;;;;;;10.73;6.50;;;;;;;;;;4929683;29;20430;-71
2023/11/22 14:49:10;;;;;;;21.03;6.70;;;;;;;;;;4937158;29;20437;-71
2023/11/22 14:51:36;;;;;;;10.27;6.07;;;;;;;;;;4935864;29;20809;-72
2023/11/22 14:54:02;;;;;;;10.47;5.83;;;;;;;;;;4920632;29;20422;-72
2023/11/22 14:56:28;;;;;;;7.43;5.30;;;;;;;;;;4928723;29;20981;-72
2023/11/22 14:58:54;;;;;;;10.30;5.23;;;;;;;;;;4943008;29;20413;-72
2023/11/22 15:01:21;;;;;;;10.87;5.70;;;;;;;;;;4927616;29;20445;-72
2023/11/22 15:03:48;;;;;;;8.63;4.97;;;;;;;;;;4927640;29;20959;-72
2023/11/22 15:06:15;;;;;;;14.97;5.60;;;;;;;;;;4928472;29;20414;-72
2023/11/22 15:08:41;;;;;;;10.57;6.23;;;;;;;;;;4925995;29;20437;-72
2023/11/22 15:11:08;;;;;;;9.97;6.07;;;;;;;;;;4931059;29;20417;-70
2023/11/22 15:13:35;;;;;;;12.70;7.27;;;;;;;;;;4940498;29;20476;-71
2023/11/22 15:16:01;;;;;;;12.40;6.60;;;;;;;;;;4918725;28;20541;-71
2023/11/22 15:18:27;;;;;;;10.87;5.97;;;;;;;;;;4923803;29;20484;-71
2023/11/22 15:20:53;;;;;;;11.67;6.07;;;;;;;;;;4938249;29;20414;-71
2023/11/22 15:23:20;;;;;;;10.30;6.27;;;;;;;;;;4936990;29;20460;-69
2023/11/22 15:25:46;;;;;;;10.13;5.73;;;;;;;;;;4936687;28;20428;-73
2023/11/22 15:28:21;;;;;;;9.50;5.30;;;;;;;;;;4931405;29;20504;-71
2023/11/22 15:30:48;;;;;;;13.93;6.87;;;;;;;;;;4935142;28;20909;-70
2023/11/22 15:33:14;;;;;;;10.30;6.50;;;;;;;;;;4935190;29;20465;-70
2023/11/22 15:35:40;;;;;;;14.97;6.20;;;;;;;;;;4934862;29;20726;-70
2023/11/22 15:38:06;;;;;;;10.60;5.80;;;;;;;;;;4945128;28;20441;-71
2023/11/22 15:40:32;;;;;;;10.90;6.03;;;;;;;;;;4934605;29;20422;-69
2023/11/22 15:42:58;;;;;;;13.80;7.10;;;;;;;;;;4934881;29;20426;-69
2023/11/22 15:45:24;;;;;;;13.53;6.03;;;;;;;;;;4934881;29;20444;-69
2023/11/22 15:47:50;;;;;;;14.03;7.10;;;;;;;;;;4943072;29;20445;-69
2023/11/22 15:50:16;;;;;;;20.33;6.53;;;;;;;;;;4952574;29;20461;-71
2023/11/22 15:52:43;;;;;;;12.50;7.47;;;;;;;;;;4944557;29;20465;-72
2023/11/22 15:55:10;;;;;;;14.90;6.80;;;;;;;;;;4940686;29;20805;-70
2023/11/22 15:57:36;;;;;;;12.10;6.60;;;;;;;;;;4935439;29;20528;-70
2023/11/22 16:00:08;;;;;;;11.53;5.90;;;;;;;;;;4943185;29;20432;-70
2023/11/22 16:02:34;;;;;;;14.90;8.00;;;;;;;;;;4935197;29;20480;-70
2023/11/22 16:05:00;;;;;;;10.53;6.87;;;;;;;;;;4931206;29;20433;-71
2023/11/22 16:07:26;;;;;;;12.23;7.27;;;;;;;;;;4936511;29;20809;-71
2023/11/22 16:09:51;;;;;;;10.93;6.60;;;;;;;;;;4937600;29;20445;-70
2023/11/22 16:12:19;;;;;;;12.70;7.43;;;;;;;;;;4951328;29;20460;-70
2023/11/22 16:14:46;;;;;;;13.20;6.77;;;;;;;;;;4938149;28;20430;-71
2023/11/22 16:17:12;;;;;;;17.97;7.30;;;;;;;;;;4906804;28;1042096;-71
2023/11/22 16:19:38;;;;;;;15.30;7.30;;;;;;;;;;4934870;29;20223;-71
2023/11/22 16:22:04;;;;;;;10.77;6.53;;;;;;;;;;4934152;29;20430;-73
2023/11/22 16:24:30;;;;;;;12.43;6.73;;;;;;;;;;4924633;29;20426;-69
2023/11/22 16:26:56;;;;;;;18.37;7.00;;;;;;;;;;4937954;29;20453;-73
2023/11/22 16:29:23;;;;;;;10.90;6.70;;;;;;;;;;4929365;28;20446;-72
2023/11/22 16:31:48;;;;;;;13.03;7.33;;;;;;;;;;4932557;29;20556;-72
2023/11/22 16:34:14;;;;;;;12.73;7.03;;;;;;;;;;4937330;29;20566;-72
2023/11/22 16:36:40;;;;;;;11.20;6.67;;;;;;;;;;4936505;29;20485;-72
2023/11/22 16:39:08;;;;;;;11.97;7.60;;;;;;;;;;4937111;29;20414;-72
2023/11/22 16:41:34;;;;;;;13.50;7.27;;;;;;;;;;4940378;29;20838;-72
2023/11/22 16:44:00;;;;;;;14.70;7.80;;;;;;;;;;4934132;29;20456;-73
2023/11/22 16:46:32;;;;;;;10.60;6.20;;;;;;;;;;4939537;29;20418;-71
2023/11/22 16:48:58;;;;;;;12.77;7.67;;;;;;;;;;4939566;28;20715;-70
2023/11/22 16:51:24;;;;;;;12.53;7.57;;;;;;;;;;4940409;29;20428;-69
2023/11/22 16:53:50;;;;;;;14.13;7.23;;;;;;;;;;4940041;29;20425;-72
2023/11/22 16:56:20;;;;;;;12.93;6.83;;;;;;;;;;4938929;29;20430;-70
2023/11/22 16:58:46;;;;;;;15.03;6.73;;;;;;;;;;4935843;29;20529;-70
2023/11/22 17:01:13;;;;;;;11.83;7.00;;;;;;;;;;4941370;28;20759;-70
2023/11/22 17:03:39;;;;;;;12.50;7.53;;;;;;;;;;4939420;29;20487;-70
2023/11/22 17:06:07;;;;;;;15.87;7.00;;;;;;;;;;4954381;28;20897;-70
2023/11/22 17:08:32;;;;;;;13.07;7.60;;;;;;;;;;4934585;28;20492;-72
2023/11/22 17:10:58;;;;;;;14.63;7.27;;;;;;;;;;4935429;29;20538;-72
2023/11/22 17:13:25;;;;;;;11.87;7.27;;;;;;;;;;4934577;29;20473;-73
2023/11/22 17:15:51;;;;;;;14.13;7.13;;;;;;;;;;4933434;29;20431;-72
2023/11/22 17:18:17;;;;;;;12.43;6.60;;;;;;;;;;4935226;29;20457;-71
2023/11/22 17:20:43;;;;;;;12.60;7.33;;;;;;;;;;4934331;29;20457;-72
2023/11/22 17:23:09;;;;;;;14.03;8.00;;;;;;;;;;4934619;29;20872;-72
2023/11/22 17:25:36;;;;;;;12.70;7.90;;;;;;;;;;4934082;29;20824;-71
2023/11/22 17:28:02;;;;;;;15.50;8.00;;;;;;;;;;4935464;29;20445;-71
2023/11/22 17:30:28;;;;;;;16.73;8.47;;;;;;;;;;4935799;29;20417;-71
2023/11/22 17:32:54;;;;;;;14.50;8.50;;;;;;;;;;4935786;29;20618;-71
2023/11/22 17:35:20;;;;;;;11.93;7.17;;;;;;;;;;4935846;29;20413;-72
2023/11/22 17:37:47;;;;;;;13.27;7.90;;;;;;;;;;4934549;29;20877;-70
2023/11/22 17:40:16;;;;;;;10.80;7.23;;;;;;;;;;4936538;29;20427;-71
2023/11/22 17:42:42;;;;;;;14.90;7.67;;;;;;;;;;4934870;29;20473;-71
2023/11/22 17:45:09;;;;;;;13.00;7.83;;;;;;;;;;4934670;29;20421;-71
2023/11/22 17:47:37;;;;;;;17.50;8.20;;;;;;;;;;4937130;29;20573;-70
2023/11/22 17:50:03;;;;;;;15.43;8.17;;;;;;;;;;4945494;28;20428;-70
2023/11/22 17:52:29;;;;;;;15.17;8.03;;;;;;;;;;4953096;29;20472;-70
2023/11/22 17:54:56;;;;;;;15.47;8.60;;;;;;;;;;4953998;29;20912;-70
2023/11/22 17:57:22;;;;;;;14.67;7.93;;;;;;;;;;4952692;28;20804;-70
2023/11/22 17:59:48;;;;;;;10.03;7.23;;;;;;;;;;4953344;29;20413;-70
2023/11/22 18:02:14;;;;;;;15.40;8.93;;;;;;;;;;4953313;29;20420;-70
2023/11/22 18:04:40;;;;;;;11.50;7.30;;;;;;;;;;4953600;28;20424;-70
2023/11/22 18:07:06;;;;;;;11.17;6.93;;;;;;;;;;4953625;28;20459;-70
2023/11/22 18:09:35;;;;;;;11.80;7.27;;;;;;;;;;4935674;29;20474;-70
2023/11/22 18:12:02;;;;;;;10.70;6.07;;;;;;;;;;4950376;29;20482;-69
2023/11/22 18:14:28;;;;;;;12.70;6.20;;;;;;;;;;4958212;28;20479;-69
2023/11/22 18:16:54;;;;;;;11.03;6.80;;;;;;;;;;4980852;23;20459;31
2023/11/22 18:19:20;;;;;;;11.97;6.33;;;;;;;;;;4938457;29;20457;-73
2023/11/22 18:21:46;;;;;;;10.30;7.03;;;;;;;;;;4939938;29;20452;-73
2023/11/22 18:24:13;;;;;;;9.30;6.27;;;;;;;;;;4939748;29;20846;-73
2023/11/22 18:26:39;;;;;;;12.10;6.33;;;;;;;;;;4939481;29;20410;-73
2023/11/22 18:29:05;;;;;;;9.47;5.90;;;;;;;;;;4922737;29;20446;-74
2023/11/22 18:31:31;;;;;;;13.53;6.50;;;;;;;;;;4920233;29;20415;-73
2023/11/22 18:33:57;;;;;;;10.70;7.30;;;;;;;;;;4920529;29;20436;-72
2023/11/22 18:36:24;;;;;;;12.93;6.47;;;;;;;;;;4915728;29;20424;-73
2023/11/22 18:38:50;;;;;;;10.27;5.90;;;;;;;;;;4911068;29;20469;-74
2023/11/22 18:41:18;;;;;;;11.60;6.50;;;;;;;;;;4910432;29;20416;-72
2023/11/22 18:43:44;;;;;;;11.40;6.03;;;;;;;;;;4914452;29;20457;-75
2023/11/22 18:46:10;;;;;;;12.00;7.40;;;;;;;;;;4919675;29;20541;-73
2023/11/22 18:48:36;;;;;;;10.27;7.10;;;;;;;;;;4920130;29;20465;-74
2023/11/22 18:51:03;;;;;;;12.03;6.60;;;;;;;;;;4920704;29;20422;-71
2023/11/22 18:53:29;;;;;;;12.07;8.00;;;;;;;;;;4942637;29;20473;-73
2023/11/22 18:55:55;;;;;;;12.50;8.43;;;;;;;;;;4918458;29;20449;-72
2023/11/22 18:58:22;;;;;;;12.20;7.00;;;;;;;;;;4919509;29;20806;-72
2023/11/22 19:00:48;;;;;;;14.47;6.47;;;;;;;;;;4910693;29;20502;-73
2023/11/22 19:03:14;;;;;;;17.57;6.90;;;;;;;;;;4912346;29;20767;-72
2023/11/22 19:05:40;;;;;;;11.80;6.40;;;;;;;;;;4909236;29;20438;-74
2023/11/22 19:08:07;;;;;;;11.10;7.60;;;;;;;;;;4910092;29;20437;-74
2023/11/22 19:10:33;;;;;;;13.80;6.67;;;;;;;;;;4909298;29;20430;-74
2023/11/22 19:12:59;;;;;;;9.00;6.43;;;;;;;;;;4910711;29;20807;-75
2023/11/22 19:15:25;;;;;;;13.27;7.20;;;;;;;;;;4912403;29;20415;-72
2023/11/22 19:17:51;;;;;;;16.87;6.63;;;;;;;;;;4909345;29;20993;-73
2023/11/22 19:20:17;;;;;;;10.40;6.43;;;;;;;;;;4910028;29;20454;-72
2023/11/22 19:22:43;;;;;;;11.07;6.40;;;;;;;;;;4907404;29;20411;-72
2023/11/22 19:25:12;;;;;;;13.17;6.97;;;;;;;;;;4910316;29;20441;-74
2023/11/22 19:27:39;;;;;;;12.15;7.30;;;;;;;;;;4909136;29;20425;-76
2023/11/22 19:30:05;;;;;;;13.57;7.60;;;;;;;;;;4908196;29;20194;-73
2023/11/22 19:32:31;;;;;;;16.37;7.63;;;;;;;;;;4906779;29;20459;-74
2023/11/22 19:34:57;;;;;;;10.93;7.43;;;;;;;;;;4908480;29;20903;-73
2023/11/22 19:37:27;;;;;;;19.37;7.40;;;;;;;;;;4909373;29;20430;-72
2023/11/22 19:39:53;;;;;;;13.17;6.60;;;;;;;;;;4925910;29;20413;-72
2023/11/22 19:42:19;;;;;;;13.80;7.33;;;;;;;;;;4907649;29;20419;-72
2023/11/22 19:44:45;;;;;;;15.80;8.33;;;;;;;;;;4915016;29;20414;-73
2023/11/22 19:47:11;;;;;;;14.30;7.80;;;;;;;;;;4921537;29;20454;-72
2023/11/22 19:49:38;;;;;;;18.90;9.20;;;;;;;;;;4921629;29;20974;-73
2023/11/22 19:52:04;;;;;;;13.60;8.20;;;;;;;;;;4912640;29;20498;-71
2023/11/22 19:54:30;;;;;;;12.23;7.90;;;;;;;;;;4918279;29;20424;-73
2023/11/22 19:56:56;;;;;;;10.90;7.00;;;;;;;;;;4914642;29;20422;-72
2023/11/22 19:59:22;;;;;;;14.23;7.90;;;;;;;;;;4913223;29;20430;-72
2023/11/22 20:01:49;;;;;;;12.03;7.20;;;;;;;;;;4920691;29;20431;-72
2023/11/22 20:04:16;;;;;;;14.60;7.13;;;;;;;;;;4918103;29;20789;-72
2023/11/22 20:06:42;;;;;;;18.33;8.43;;;;;;;;;;4910963;29;20465;-73
2023/11/22 20:09:09;;;;;;;14.23;7.63;;;;;;;;;;4920637;29;20455;-74
2023/11/22 20:11:35;;;;;;;12.57;7.87;;;;;;;;;;4928874;29;20429;-74
2023/11/22 20:14:01;;;;;;;12.13;7.63;;;;;;;;;;4922438;29;20431;-73
2023/11/22 20:16:27;;;;;;;18.90;8.40;;;;;;;;;;4922021;29;20442;-74
2023/11/22 20:18:53;;;;;;;15.07;8.37;;;;;;;;;;4926888;29;20542;-74
2023/11/22 20:21:19;;;;;;;15.30;8.73;;;;;;;;;;4918051;29;20956;-73
2023/11/22 20:23:45;;;;;;;21.60;10.20;;;;;;;;;;4924418;29;20422;-72
2023/11/22 20:26:11;;;;;;;16.97;9.67;;;;;;;;;;4924043;29;20414;-73
2023/11/22 20:28:37;;;;;;;16.10;8.80;;;;;;;;;;4910842;29;20532;-72
2023/11/22 20:31:03;;;;;;;16.40;8.20;;;;;;;;;;4920538;29;20431;-72
2023/11/22 20:33:29;;;;;;;13.20;7.77;;;;;;;;;;4917071;29;20536;-72
2023/11/22 20:35:56;;;;;;;17.17;9.93;;;;;;;;;;4920632;29;20423;-73